Time;durP1;ratioP1;P1;durP2;ratioP2;P2;SDS_P1;SDS_P2;PMS_P1;PMS_P2;Temp;Humidity;BMP_temperature;BMP_pressure;BME280_temperature;BME280_humidity;BME280_pressure;Samples;Min_cycle;Max_cycle;Signal;HPM_P1;HPM_P2
2023/07/26 00:01:07;;;;;;;4.88;2.25;;;16.10;94.60;;;;;;5002319;28;20397;-88
2023/07/26 00:03:33;;;;;;;4.55;2.35;;;16.00;94.80;;;;;;4984266;28;20381;-87
2023/07/26 00:06:00;;;;;;;5.40;2.05;;;16.00;94.80;;;;;;4983986;28;20026;-87
2023/07/26 00:08:26;;;;;;;4.95;2.00;;;16.10;94.80;;;;;;4999784;28;20079;-87
2023/07/26 00:10:54;;;;;;;2.55;2.03;;;16.00;94.90;;;;;;4998359;28;20030;-86
2023/07/26 00:13:19;;;;;;;13.10;2.38;;;16.00;95.30;;;;;;4997728;28;20049;-87
2023/07/26 00:15:45;;;;;;;4.97;2.22;;;15.90;95.30;;;;;;5000782;28;20034;-86
2023/07/26 00:18:11;;;;;;;3.38;2.10;;;15.80;95.40;;;;;;4997624;28;20018;-86
2023/07/26 00:20:36;;;;;;;2.72;1.88;;;15.90;95.60;;;;;;5001054;28;20048;-85
2023/07/26 00:23:02;;;;;;;5.95;2.20;;;15.80;95.40;;;;;;4999241;28;20025;-87
2023/07/26 00:25:28;;;;;;;2.80;2.30;;;15.80;95.70;;;;;;4997983;28;20458;-86
2023/07/26 00:27:54;;;;;;;8.50;2.03;;;15.70;96.00;;;;;;4992391;28;20037;-86
2023/07/26 00:30:19;;;;;;;7.32;2.15;;;15.60;96.20;;;;;;5004121;28;20044;-86
2023/07/26 00:32:45;;;;;;;1.90;1.75;;;15.60;96.20;;;;;;4998097;28;20622;-86
2023/07/26 00:35:19;;;;;;;4.68;1.92;;;15.70;96.00;;;;;;4999987;28;20026;-86
2023/07/26 00:37:45;;;;;;;4.25;2.10;;;15.70;96.00;;;;;;4999817;28;20030;-86
2023/07/26 00:40:11;;;;;;;4.55;2.10;;;15.70;96.10;;;;;;4997976;28;20490;-86
2023/07/26 00:42:37;;;;;;;5.38;2.17;;;15.60;96.20;;;;;;4981359;28;20022;-86
2023/07/26 00:45:05;;;;;;;8.05;2.20;;;15.60;96.30;;;;;;4998730;28;20386;-87
2023/07/26 00:47:31;;;;;;;4.70;2.15;;;15.70;96.30;;;;;;4982984;28;20117;-87
2023/07/26 00:49:57;;;;;;;4.72;2.13;;;15.70;96.30;;;;;;4997866;28;20050;-87
2023/07/26 00:52:25;;;;;;;4.55;1.88;;;15.80;96.20;;;;;;4983594;28;20023;-86
2023/07/26 00:54:55;;;;;;;5.53;2.13;;;15.80;96.00;;;;;;4987188;28;20409;-87
2023/07/26 00:57:21;;;;;;;5.03;2.00;;;15.80;96.10;;;;;;4981833;28;20038;-87
2023/07/26 00:59:47;;;;;;;2.95;1.90;;;15.60;96.40;;;;;;4982848;28;20022;-85
2023/07/26 01:02:15;;;;;;;2.40;2.20;;;15.60;96.80;;;;;;5003010;28;20021;-86
2023/07/26 01:04:40;;;;;;;3.83;2.30;;;15.60;96.70;;;;;;4986055;28;20030;-86
2023/07/26 01:07:23;;;;;;;4.10;2.70;;;15.60;96.60;;;;;;4984496;28;20029;-87
2023/07/26 01:10:07;;;;;;;3.50;2.55;;;15.70;96.80;;;;;;4989591;28;20121;-86
2023/07/26 01:12:40;;;;;;;5.75;2.35;;;15.80;96.50;;;;;;5000946;28;20032;-86
2023/07/26 01:15:12;;;;;;;2.75;2.10;;;15.90;96.20;;;;;;4998856;28;20030;-86
2023/07/26 01:17:38;;;;;;;8.38;2.30;;;15.90;95.80;;;;;;4983523;28;20044;-86
2023/07/26 01:20:04;;;;;;;10.90;2.30;;;15.90;95.70;;;;;;4981641;28;20026;-85
2023/07/26 01:22:30;;;;;;;6.18;2.30;;;15.90;96.40;;;;;;4995663;28;20081;-85
2023/07/26 01:24:56;;;;;;;6.20;2.42;;;16.00;97.00;;;;;;4994619;28;20433;-84
2023/07/26 01:27:22;;;;;;;6.78;2.63;;;15.80;97.60;;;;;;4994629;28;20037;-85
2023/07/26 01:29:51;;;;;;;11.68;3.05;;;15.80;97.80;;;;;;4995388;28;20034;-85
2023/07/26 01:32:20;;;;;;;6.80;2.95;;;15.90;97.70;;;;;;4997719;28;20029;-85
2023/07/26 01:34:47;;;;;;;6.88;2.97;;;15.80;97.80;;;;;;4977366;28;20088;-85
2023/07/26 01:37:13;;;;;;;8.05;3.45;;;15.60;98.20;;;;;;4978863;28;20524;-86
2023/07/26 01:39:42;;;;;;;4.85;3.33;;;15.40;98.50;;;;;;4993911;28;20035;-85
2023/07/26 01:42:11;;;;;;;8.80;3.75;;;15.40;98.50;;;;;;4984447;28;20029;-86
2023/07/26 01:44:37;;;;;;;4.65;3.80;;;15.50;98.50;;;;;;4998026;28;20037;-85
2023/07/26 01:47:03;;;;;;;3.97;3.33;;;15.50;98.30;;;;;;4979059;28;20033;-84
2023/07/26 01:49:29;;;;;;;4.70;3.60;;;15.50;98.30;;;;;;4998552;28;20570;-85
2023/07/26 01:51:54;;;;;;;5.35;3.85;;;15.50;98.70;;;;;;4997174;28;20030;-86
2023/07/26 01:54:20;;;;;;;5.78;3.50;;;15.30;98.50;;;;;;4980669;28;20048;-81
2023/07/26 01:56:46;;;;;;;5.28;3.90;;;15.40;98.50;;;;;;4984302;28;20566;-85
2023/07/26 01:59:11;;;;;;;5.82;3.90;;;15.30;98.40;;;;;;4981364;28;20069;-86
2023/07/26 02:01:37;;;;;;;10.18;4.22;;;15.30;98.40;;;;;;4979601;28;20032;-85
2023/07/26 02:04:03;;;;;;;7.38;4.47;;;15.40;99.00;;;;;;4999608;28;20026;-86
2023/07/26 02:06:28;;;;;;;6.97;4.20;;;15.40;98.70;;;;;;4996284;28;20037;-85
2023/07/26 02:09:03;;;;;;;7.72;3.88;;;15.40;98.60;;;;;;4985646;28;20053;-85
2023/07/26 02:11:28;;;;;;;5.45;3.90;;;15.50;98.60;;;;;;5002662;28;20048;-86
2023/07/26 02:13:54;;;;;;;4.68;4.18;;;15.40;98.70;;;;;;4999240;28;20049;-84
2023/07/26 02:16:20;;;;;;;5.15;4.60;;;15.30;98.80;;;;;;4989712;28;20034;-84
2023/07/26 02:18:45;;;;;;;11.02;4.05;;;15.30;98.80;;;;;;4985044;28;20057;-85
2023/07/26 02:21:11;;;;;;;8.25;4.63;;;15.30;99.00;;;;;;4978387;28;20370;-85
2023/07/26 02:23:37;;;;;;;4.95;4.30;;;15.40;99.30;;;;;;4997731;28;20452;-85
2023/07/26 02:26:04;;;;;;;10.10;4.47;;;15.40;99.10;;;;;;4978618;28;20033;-85
2023/07/26 02:28:29;;;;;;;9.20;4.65;;;15.30;99.40;;;;;;4981610;28;20072;-85
2023/07/26 02:30:55;;;;;;;9.40;4.63;;;15.20;99.20;;;;;;4995721;28;20482;-85
2023/07/26 02:33:21;;;;;;;6.18;4.63;;;15.30;99.10;;;;;;4980101;28;20038;-86
2023/07/26 02:35:46;;;;;;;4.63;4.22;;;15.20;99.30;;;;;;4978445;28;20026;-85
2023/07/26 02:38:12;;;;;;;6.07;4.65;;;15.00;99.50;;;;;;4979959;28;20113;-85
2023/07/26 02:40:37;;;;;;;10.30;5.15;;;15.00;99.70;;;;;;4985307;28;20120;-85
2023/07/26 02:43:03;;;;;;;5.85;4.78;;;14.90;99.80;;;;;;4976577;28;20037;-81
2023/07/26 02:45:31;;;;;;;12.10;4.95;;;15.00;99.90;;;;;;4973504;28;20092;-82
2023/07/26 02:47:57;;;;;;;7.93;5.15;;;15.10;99.90;;;;;;4980622;28;20117;-82
2023/07/26 02:50:22;;;;;;;6.57;4.82;;;15.10;99.70;;;;;;4974289;28;20165;-82
2023/07/26 02:52:48;;;;;;;7.07;4.82;;;15.10;99.90;;;;;;4975216;28;20639;-82
2023/07/26 02:55:13;;;;;;;10.90;6.03;;;15.10;99.90;;;;;;4975352;28;20033;-81
2023/07/26 02:57:39;;;;;;;8.93;5.50;;;15.20;99.80;;;;;;4976528;28;20038;-82
2023/07/26 03:00:05;;;;;;;6.07;5.43;;;15.10;99.90;;;;;;4974537;28;20421;-82
2023/07/26 03:02:31;;;;;;;7.22;5.63;;;15.20;99.90;;;;;;4995699;28;20685;-81
2023/07/26 03:04:57;;;;;;;9.65;5.50;;;15.20;99.90;;;;;;4980098;28;20025;-81
2023/07/26 03:07:22;;;;;;;11.77;5.53;;;15.20;99.90;;;;;;4981511;28;20530;-82
2023/07/26 03:09:50;;;;;;;7.07;5.03;;;15.20;99.90;;;;;;4983169;28;20045;-85
2023/07/26 03:12:16;;;;;;;8.35;5.70;;;15.10;99.90;;;;;;5118471;22;20482;-85
2023/07/26 03:14:41;;;;;;;10.85;5.18;;;15.00;99.90;;;;;;4983342;28;20050;-84
2023/07/26 03:17:09;;;;;;;12.50;5.03;;;14.90;99.90;;;;;;4983494;28;20030;-83
2023/07/26 03:19:35;;;;;;;9.10;5.88;;;14.80;99.90;;;;;;4982250;28;20033;-80
2023/07/26 03:22:00;;;;;;;13.20;5.82;;;14.80;99.90;;;;;;4984364;28;20504;-81
2023/07/26 03:24:26;;;;;;;8.43;4.95;;;15.00;99.90;;;;;;4982505;28;20030;-80
2023/07/26 03:26:52;;;;;;;5.60;4.95;;;15.00;99.90;;;;;;4981480;28;20026;-81
2023/07/26 03:29:17;;;;;;;7.80;5.25;;;14.90;99.90;;;;;;4997707;28;20653;-82
2023/07/26 03:31:43;;;;;;;9.02;5.50;;;14.90;99.90;;;;;;4982873;28;20493;-82
2023/07/26 03:34:09;;;;;;;8.30;5.40;;;14.80;99.90;;;;;;4982394;28;20564;-81
2023/07/26 03:36:34;;;;;;;9.45;5.97;;;14.80;99.90;;;;;;4989431;28;20022;-81
2023/07/26 03:39:00;;;;;;;10.55;5.93;;;14.90;99.90;;;;;;4998014;28;20093;-83
2023/07/26 03:41:26;;;;;;;10.95;6.07;;;14.90;99.90;;;;;;4999172;28;20060;-81
2023/07/26 03:43:51;;;;;;;9.82;5.70;;;14.80;99.90;;;;;;4980801;28;20026;-81
2023/07/26 03:46:17;;;;;;;6.32;5.65;;;14.80;99.90;;;;;;4987757;28;20018;-81
2023/07/26 03:48:43;;;;;;;14.35;5.55;;;14.90;99.90;;;;;;4999181;28;20026;-84
2023/07/26 03:51:08;;;;;;;9.18;6.13;;;14.90;99.90;;;;;;4999748;28;20577;-82
2023/07/26 03:53:34;;;;;;;6.13;5.28;;;15.00;99.90;;;;;;4998512;28;20056;-82
2023/07/26 03:55:59;;;;;;;7.78;5.43;;;15.00;99.90;;;;;;4993851;28;20014;-84
2023/07/26 03:58:27;;;;;;;7.53;5.35;;;14.90;99.90;;;;;;4989154;28;20040;-80
2023/07/26 04:00:55;;;;;;;9.82;5.70;;;14.90;99.90;;;;;;4981013;28;20444;-80
2023/07/26 04:03:21;;;;;;;8.65;5.88;;;14.90;99.90;;;;;;4993068;28;20101;-81
2023/07/26 04:05:49;;;;;;;7.82;5.50;;;14.70;99.90;;;;;;4994786;28;20173;-81
2023/07/26 04:08:15;;;;;;;8.43;5.75;;;14.50;99.90;;;;;;4992614;28;20048;-81
2023/07/26 04:10:41;;;;;;;6.78;5.32;;;14.50;99.90;;;;;;4971066;28;20841;-81
2023/07/26 04:13:06;;;;;;;9.43;5.65;;;14.40;99.90;;;;;;4976348;28;20116;-80
2023/07/26 04:15:35;;;;;;;6.95;6.25;;;14.40;99.90;;;;;;4979923;28;20034;-85
2023/07/26 04:18:02;;;;;;;7.72;5.72;;;14.30;99.90;;;;;;4979886;28;20080;-84
2023/07/26 04:20:28;;;;;;;7.05;5.78;;;14.30;99.90;;;;;;4984559;28;20088;-85
2023/07/26 04:22:57;;;;;;;7.72;6.40;;;14.20;99.90;;;;;;4989725;28;20090;-81
2023/07/26 04:25:25;;;;;;;6.80;6.13;;;14.20;99.90;;;;;;4981825;28;20033;-81
2023/07/26 04:27:57;;;;;;;12.82;6.38;;;14.20;99.90;;;;;;4995820;28;20025;-81
2023/07/26 04:30:23;;;;;;;8.82;6.40;;;14.10;99.90;;;;;;4974244;28;20301;-81
2023/07/26 04:32:51;;;;;;;10.18;6.45;;;14.00;99.90;;;;;;4998628;28;20018;-84
2023/07/26 04:35:19;;;;;;;11.82;6.53;;;13.90;99.90;;;;;;4982931;28;20065;-84
2023/07/26 04:37:44;;;;;;;8.57;5.97;;;13.90;99.90;;;;;;4982389;28;20034;-87
2023/07/26 04:40:10;;;;;;;8.55;6.00;;;13.90;99.90;;;;;;4981304;28;20029;-85
2023/07/26 04:42:36;;;;;;;9.00;6.55;;;13.80;99.90;;;;;;4981462;28;20029;-84
2023/07/26 04:45:02;;;;;;;7.75;6.80;;;13.80;99.90;;;;;;4996710;28;20025;-84
2023/07/26 04:47:27;;;;;;;9.38;6.30;;;13.80;99.90;;;;;;4980687;28;20050;-84
2023/07/26 04:49:53;;;;;;;7.65;6.18;;;13.80;99.90;;;;;;4997703;28;20018;-83
2023/07/26 04:52:18;;;;;;;8.30;6.25;;;13.90;99.90;;;;;;4997842;28;20044;-88
2023/07/26 04:54:44;;;;;;;10.10;6.50;;;13.90;99.90;;;;;;4978838;28;20065;-85
2023/07/26 04:57:12;;;;;;;8.32;6.57;;;13.90;99.90;;;;;;4981906;28;20363;-84
2023/07/26 04:59:40;;;;;;;8.18;6.68;;;14.00;99.90;;;;;;4998678;28;20025;-83
2023/07/26 05:02:05;;;;;;;10.55;6.85;;;14.00;99.90;;;;;;4998261;28;20029;-85
2023/07/26 05:04:31;;;;;;;8.80;7.43;;;13.90;99.90;;;;;;4998184;28;20454;-84
2023/07/26 05:06:57;;;;;;;10.70;7.47;;;13.90;99.90;;;;;;4978845;28;20375;-84
2023/07/26 05:09:22;;;;;;;8.60;7.05;;;14.00;99.90;;;;;;4999583;28;20048;-85
2023/07/26 05:11:48;;;;;;;11.32;7.78;;;14.00;99.90;;;;;;5012948;28;20018;-83
2023/07/26 05:14:13;;;;;;;9.00;7.38;;;14.10;99.90;;;;;;5020018;28;20046;-85
2023/07/26 05:16:39;;;;;;;12.48;7.93;;;14.30;99.90;;;;;;4996701;28;20052;-83
2023/07/26 05:19:04;;;;;;;10.10;6.82;;;14.40;99.90;;;;;;4997523;28;20029;-84
2023/07/26 05:21:30;;;;;;;10.30;7.40;;;14.50;99.90;;;;;;4984794;28;20085;-84
2023/07/26 05:23:56;;;;;;;12.63;8.20;;;14.50;99.90;;;;;;4981371;28;20017;-84
2023/07/26 05:26:21;;;;;;;14.68;7.60;;;14.40;99.90;;;;;;4996399;28;20530;-84
2023/07/26 05:28:47;;;;;;;11.32;7.60;;;14.60;99.90;;;;;;4982660;28;20026;-85
2023/07/26 05:31:12;;;;;;;10.57;7.97;;;14.60;99.90;;;;;;4996665;28;20378;-84
2023/07/26 05:33:38;;;;;;;11.50;8.13;;;14.80;99.90;;;;;;4980237;28;20553;-84
2023/07/26 05:36:05;;;;;;;11.32;7.82;;;14.80;99.90;;;;;;4980042;28;20037;-84
2023/07/26 05:38:31;;;;;;;11.23;8.07;;;14.90;99.90;;;;;;4994769;28;20022;-84
2023/07/26 05:41:06;;;;;;;16.13;7.40;;;15.10;99.90;;;;;;4995915;28;20033;-84
2023/07/26 05:43:32;;;;;;;13.45;6.93;;;15.10;99.90;;;;;;4994567;28;20619;-84
2023/07/26 05:45:59;;;;;;;9.13;7.22;;;15.30;99.60;;;;;;4977893;28;20042;-84
2023/07/26 05:48:25;;;;;;;8.75;7.50;;;15.30;99.70;;;;;;4978175;28;20333;-83
2023/07/26 05:50:51;;;;;;;11.40;6.93;;;15.50;99.40;;;;;;4994543;28;20036;-84
2023/07/26 05:53:16;;;;;;;16.75;7.15;;;15.60;98.80;;;;;;4995152;28;20389;-84
2023/07/26 05:55:44;;;;;;;9.95;6.88;;;15.60;99.20;;;;;;4984567;28;20120;-84
2023/07/26 05:58:10;;;;;;;9.57;6.82;;;15.70;98.60;;;;;;4996575;28;20385;-85
2023/07/26 06:00:36;;;;;;;10.13;6.88;;;15.80;98.40;;;;;;4997470;28;20022;-85
2023/07/26 06:03:01;;;;;;;7.97;6.70;;;15.80;98.20;;;;;;4996336;28;20104;-84
2023/07/26 06:05:30;;;;;;;11.27;7.20;;;15.90;98.20;;;;;;4981807;28;20030;-84
2023/07/26 06:07:55;;;;;;;8.95;6.40;;;15.80;98.10;;;;;;4979513;28;20021;-84
2023/07/26 06:10:21;;;;;;;13.48;6.70;;;15.90;98.30;;;;;;4981053;28;20036;-82
2023/07/26 06:12:46;;;;;;;7.88;5.70;;;16.00;97.90;;;;;;4997811;28;20038;-84
2023/07/26 06:15:12;;;;;;;7.20;6.45;;;16.10;98.00;;;;;;4996490;28;20474;-84
2023/07/26 06:17:38;;;;;;;7.60;6.60;;;16.10;97.70;;;;;;4998059;28;20030;-91
2023/07/26 06:20:05;;;;;;;7.85;6.70;;;16.00;97.90;;;;;;4997733;28;20824;-88
2023/07/26 06:22:30;;;;;;;15.88;6.35;;;16.10;97.70;;;;;;4998450;28;20030;-85
2023/07/26 06:24:56;;;;;;;8.10;5.78;;;16.20;97.60;;;;;;4998805;28;20022;-83
2023/07/26 06:27:22;;;;;;;7.93;5.95;;;16.30;97.10;;;;;;4996956;28;20030;-84
2023/07/26 06:29:53;;;;;;;6.75;5.45;;;16.40;97.00;;;;;;4998315;28;20026;-85
2023/07/26 06:32:18;;;;;;;9.55;5.57;;;16.50;96.90;;;;;;4980235;28;20033;-84
2023/07/26 06:34:44;;;;;;;10.77;6.00;;;16.30;96.70;;;;;;4985081;28;20041;-84
2023/07/26 06:37:10;;;;;;;9.07;5.60;;;16.20;97.20;;;;;;5001462;28;20693;-88
2023/07/26 06:39:37;;;;;;;8.77;6.53;;;16.30;97.00;;;;;;4989916;28;20022;-87
2023/07/26 06:42:03;;;;;;;10.98;5.78;;;16.30;97.00;;;;;;4991215;28;20085;-85
2023/07/26 06:44:29;;;;;;;10.73;6.00;;;16.40;97.40;;;;;;4999865;28;20109;-85
2023/07/26 06:46:54;;;;;;;5.82;4.97;;;16.60;96.90;;;;;;4999842;28;20025;-84
2023/07/26 06:49:20;;;;;;;6.43;5.82;;;16.60;97.00;;;;;;4999880;28;20030;-85
2023/07/26 06:51:45;;;;;;;7.18;5.85;;;16.40;96.60;;;;;;4982546;28;20033;-84
2023/07/26 06:54:11;;;;;;;7.03;5.70;;;16.60;97.30;;;;;;5002778;28;20427;-84
2023/07/26 06:56:37;;;;;;;6.95;5.32;;;16.60;95.60;;;;;;4998070;28;20030;-84
2023/07/26 06:59:08;;;;;;;11.10;5.00;;;16.60;96.00;;;;;;4995275;28;20022;-84
2023/07/26 07:01:33;;;;;;;9.10;5.20;;;16.60;96.10;;;;;;4996091;28;20022;-85
2023/07/26 07:03:59;;;;;;;9.30;5.75;;;16.70;95.90;;;;;;5000689;28;20030;-84
2023/07/26 07:06:25;;;;;;;6.93;5.22;;;16.80;95.90;;;;;;4999510;28;20030;-90
2023/07/26 07:08:50;;;;;;;6.53;5.43;;;16.90;95.40;;;;;;5000424;28;20031;-86
2023/07/26 07:11:16;;;;;;;7.43;4.70;;;16.90;95.70;;;;;;5001855;28;20026;-85
2023/07/26 07:13:41;;;;;;;6.40;4.50;;;17.00;95.00;;;;;;4980876;28;20045;-85
2023/07/26 07:16:07;;;;;;;5.00;4.50;;;17.30;95.00;;;;;;4995598;28;20022;-85
2023/07/26 07:18:35;;;;;;;7.82;5.10;;;17.30;95.00;;;;;;5000734;28;20079;-85
2023/07/26 07:21:00;;;;;;;5.35;4.32;;;17.40;94.70;;;;;;4981491;28;20262;-85
2023/07/26 07:23:27;;;;;;;7.55;4.10;;;17.40;94.10;;;;;;4982744;28;20021;-85
2023/07/26 07:25:53;;;;;;;7.78;4.90;;;17.50;93.50;;;;;;4999936;28;20038;-85
2023/07/26 07:28:22;;;;;;;9.50;4.82;;;17.70;93.70;;;;;;4981948;28;20118;-85
2023/07/26 07:30:47;;;;;;;6.75;4.28;;;17.80;93.80;;;;;;4979322;28;20359;-85
2023/07/26 07:33:13;;;;;;;6.53;4.65;;;17.80;93.90;;;;;;4985932;28;20045;-84
2023/07/26 07:35:39;;;;;;;6.85;4.60;;;18.00;93.40;;;;;;4999336;28;20042;-84
2023/07/26 07:38:04;;;;;;;8.45;4.50;;;18.00;93.60;;;;;;4998569;28;20521;-86
2023/07/26 07:40:30;;;;;;;7.30;4.70;;;18.20;93.60;;;;;;4995457;28;20030;-86
2023/07/26 07:42:55;;;;;;;9.73;5.30;;;18.30;92.50;;;;;;5002638;28;20390;-85
2023/07/26 07:45:21;;;;;;;8.35;4.82;;;18.50;92.70;;;;;;4986557;28;20041;-85
2023/07/26 07:47:46;;;;;;;6.63;4.65;;;18.50;92.60;;;;;;4998750;28;20149;-85
2023/07/26 07:50:12;;;;;;;9.45;4.88;;;18.60;92.30;;;;;;4998709;28;20030;-89
2023/07/26 07:52:38;;;;;;;9.32;6.15;;;18.50;92.10;;;;;;4990486;28;20015;-88
2023/07/26 07:55:04;;;;;;;7.55;6.40;;;18.50;91.90;;;;;;4998883;28;20061;-85
2023/07/26 07:57:31;;;;;;;15.63;6.75;;;18.30;92.20;;;;;;4988762;28;20051;-86
2023/07/26 07:59:57;;;;;;;9.95;6.90;;;18.30;92.40;;;;;;5000229;28;20033;-86
2023/07/26 08:02:23;;;;;;;14.10;8.38;;;18.30;92.70;;;;;;4990088;28;20248;-86
2023/07/26 08:04:48;;;;;;;15.75;6.75;;;18.40;92.50;;;;;;4982612;28;20032;-85
2023/07/26 08:07:14;;;;;;;12.77;7.25;;;18.60;92.50;;;;;;4985390;28;20462;-85
2023/07/26 08:09:41;;;;;;;12.38;7.78;;;18.80;92.80;;;;;;4987730;28;20109;-85
2023/07/26 08:12:07;;;;;;;13.63;8.02;;;18.80;92.00;;;;;;4997260;28;20028;-86
2023/07/26 08:14:33;;;;;;;11.50;7.03;;;18.80;92.40;;;;;;4982922;28;20034;-86
2023/07/26 08:16:59;;;;;;;17.23;7.63;;;19.00;92.50;;;;;;4998558;28;20030;-84
2023/07/26 08:19:25;;;;;;;13.27;8.52;;;18.70;92.60;;;;;;5004347;28;20017;-85
2023/07/26 08:21:50;;;;;;;11.70;8.18;;;18.50;92.80;;;;;;5000492;28;20034;-84
2023/07/26 08:24:16;;;;;;;16.33;8.00;;;18.70;93.10;;;;;;4994277;28;20918;-80
2023/07/26 08:26:42;;;;;;;10.48;8.50;;;18.80;92.80;;;;;;4992801;28;20080;-81
2023/07/26 08:29:07;;;;;;;12.27;8.05;;;19.00;92.80;;;;;;4995220;28;20410;-83
2023/07/26 08:31:33;;;;;;;11.20;7.55;;;19.00;92.70;;;;;;4978824;28;20014;-80
2023/07/26 08:33:58;;;;;;;13.38;8.13;;;19.00;93.00;;;;;;4995613;28;20040;-81
2023/07/26 08:36:24;;;;;;;16.17;9.07;;;19.00;93.00;;;;;;4976252;28;20037;-81
2023/07/26 08:38:50;;;;;;;5.15;3.38;;;18.90;94.00;;;;;;4995776;28;20022;-81
2023/07/26 08:41:15;;;;;;;3.25;2.25;;;18.40;92.00;;;;;;4993335;28;20490;-80
2023/07/26 08:43:44;;;;;;;6.38;2.05;;;17.90;92.00;;;;;;4988728;28;20445;-81
2023/07/26 08:46:10;;;;;;;2.63;1.98;;;17.30;93.00;;;;;;4974684;28;20100;-81
2023/07/26 08:48:37;;;;;;;4.75;1.67;;;16.90;94.10;;;;;;4992659;28;20026;-80
2023/07/26 08:51:05;;;;;;;2.70;1.33;;;16.50;95.30;;;;;;4979536;28;20037;-83
2023/07/26 08:53:31;;;;;;;1.60;1.33;;;16.20;95.70;;;;;;4994115;28;20054;-82
2023/07/26 08:55:56;;;;;;;2.90;1.20;;;15.80;96.70;;;;;;4993576;28;20108;-81
2023/07/26 08:58:22;;;;;;;1.67;1.48;;;15.60;97.20;;;;;;4982844;28;20526;-81
2023/07/26 09:00:48;;;;;;;1.58;1.10;;;15.50;97.80;;;;;;4991295;28;20418;-82
2023/07/26 09:03:16;;;;;;;2.08;1.30;;;15.40;97.80;;;;;;4982245;28;20022;-83
2023/07/26 09:05:42;;;;;;;1.55;1.05;;;15.30;98.40;;;;;;4984177;28;20061;-80
2023/07/26 09:08:08;;;;;;;2.78;1.40;;;15.20;98.00;;;;;;4983524;28;20038;-80
2023/07/26 09:10:34;;;;;;;5.13;1.23;;;15.10;97.60;;;;;;4993076;28;20045;-81
2023/07/26 09:13:12;;;;;;;3.22;1.48;;;15.20;98.30;;;;;;4995046;28;20037;-81
2023/07/26 09:15:40;;;;;;;1.90;1.38;;;15.20;98.00;;;;;;4993644;28;20030;-82
2023/07/26 09:18:06;;;;;;;1.02;0.93;;;15.10;98.50;;;;;;4997050;28;20038;-82
2023/07/26 09:20:33;;;;;;;1.25;1.15;;;15.00;98.10;;;;;;4983405;28;20509;-81
2023/07/26 09:23:10;;;;;;;3.17;0.90;;;15.10;99.10;;;;;;4995851;28;20022;-80
2023/07/26 09:25:41;;;;;;;2.17;1.45;;;15.10;98.50;;;;;;4993338;28;20040;-80
2023/07/26 09:28:08;;;;;;;1.23;1.10;;;15.20;98.70;;;;;;4974532;28;20065;-81
2023/07/26 09:30:38;;;;;;;1.88;1.10;;;15.10;98.90;;;;;;4983876;28;20029;-79
2023/07/26 09:33:06;;;;;;;1.40;1.08;;;15.30;99.00;;;;;;4995873;28;20101;-80
2023/07/26 09:35:40;;;;;;;1.35;1.08;;;15.70;99.80;;;;;;4992332;28;20470;-81
2023/07/26 09:38:16;;;;;;;1.70;1.35;;;16.10;98.50;;;;;;4994074;28;20053;-79
2023/07/26 09:40:42;;;;;;;2.05;1.08;;;16.60;97.10;;;;;;4991961;28;20038;-80
2023/07/26 09:43:08;;;;;;;1.35;1.10;;;17.10;98.40;;;;;;4991092;28;20073;-80
2023/07/26 09:45:36;;;;;;;2.30;1.95;;;17.50;96.00;;;;;;4993770;28;20413;-79
2023/07/26 09:48:10;;;;;;;3.40;1.80;;;17.80;95.90;;;;;;4994838;28;20060;-79
2023/07/26 09:50:36;;;;;;;4.47;1.70;;;18.30;95.00;;;;;;4994398;28;20017;-79
2023/07/26 09:53:04;;;;;;;2.40;2.20;;;18.90;94.90;;;;;;4991244;28;20048;-79
2023/07/26 09:55:30;;;;;;;5.68;2.70;;;19.20;94.50;;;;;;4991844;28;20172;-82
2023/07/26 09:57:57;;;;;;;2.75;2.50;;;19.60;93.20;;;;;;4969892;28;20490;-79
2023/07/26 10:00:24;;;;;;;4.88;2.92;;;19.90;92.20;;;;;;4993099;28;20061;-79
2023/07/26 10:03:06;;;;;;;4.65;3.90;;;20.30;92.20;;;;;;4982354;28;20677;-78
2023/07/26 10:05:42;;;;;;;7.57;4.70;;;20.40;92.10;;;;;;4992347;28;20026;-80
2023/07/26 10:08:09;;;;;;;11.25;7.63;;;20.50;93.80;;;;;;4992287;28;20032;-83
2023/07/26 10:10:34;;;;;;;8.43;6.85;;;20.40;91.40;;;;;;4991599;28;20049;-80
2023/07/26 10:13:01;;;;;;;8.85;6.75;;;20.80;92.10;;;;;;4992074;28;20237;-79
2023/07/26 10:15:31;;;;;;;8.60;6.50;;;20.80;91.30;;;;;;4995927;28;20034;-78
2023/07/26 10:17:57;;;;;;;8.48;6.35;;;21.30;90.90;;;;;;4993364;28;20057;-80
2023/07/26 10:20:23;;;;;;;10.65;6.75;;;21.30;91.00;;;;;;4971582;28;20062;-81
2023/07/26 10:22:50;;;;;;;9.65;6.63;;;21.40;89.80;;;;;;4983427;28;20207;-80
2023/07/26 10:25:16;;;;;;;9.15;6.45;;;21.60;90.10;;;;;;4989985;28;20048;-81
2023/07/26 10:27:43;;;;;;;7.57;6.50;;;21.50;88.40;;;;;;4991271;28;20046;-85
2023/07/26 10:30:10;;;;;;;11.35;6.88;;;21.80;88.40;;;;;;4991054;28;20029;-85
2023/07/26 10:32:54;;;;;;;9.32;6.30;;;22.00;86.20;;;;;;4998099;28;20037;-82
2023/07/26 10:35:34;;;;;;;9.45;6.63;;;22.10;85.60;;;;;;4991646;28;20037;-84
2023/07/26 10:38:03;;;;;;;8.30;6.45;;;22.30;86.80;;;;;;4993924;28;20030;-86
2023/07/26 10:40:34;;;;;;;8.73;6.25;;;22.20;84.70;;;;;;4995215;28;20049;-86
2023/07/26 10:43:15;;;;;;;11.07;5.35;;;22.50;85.60;;;;;;4980707;28;20026;-86
2023/07/26 10:45:44;;;;;;;8.07;5.57;;;22.70;83.10;;;;;;4994714;28;20023;-86
2023/07/26 10:48:40;;;;;;;9.02;5.70;;;22.90;83.90;;;;;;4992482;28;20026;-84
2023/07/26 10:51:31;;;;;;;12.68;6.65;;;23.00;82.00;;;;;;4978890;28;20109;-83
2023/07/26 10:53:58;;;;;;;9.32;6.55;;;22.80;82.00;;;;;;4981665;28;20060;-85
2023/07/26 10:56:25;;;;;;;6.60;5.90;;;22.10;81.80;;;;;;4986105;28;20722;-86
2023/07/26 10:58:54;;;;;;;8.23;6.88;;;22.50;82.70;;;;;;4997324;28;20117;-86
2023/07/26 11:01:43;;;;;;;8.85;6.20;;;22.50;81.50;;;;;;4996355;28;20046;-86
2023/07/26 11:04:14;;;;;;;11.75;5.85;;;22.60;80.60;;;;;;4995058;28;20037;-86
2023/07/26 11:06:58;;;;;;;7.88;5.90;;;23.00;80.50;;;;;;4996057;28;20561;-86
2023/07/26 11:09:33;;;;;;;10.95;5.57;;;23.00;81.90;;;;;;4997619;28;20473;-85
2023/07/26 11:12:03;;;;;;;5.57;5.07;;;23.00;78.60;;;;;;4993538;28;20478;-84
2023/07/26 11:14:32;;;;;;;8.32;5.20;;;23.20;76.10;;;;;;4997026;28;20533;-85
2023/07/26 11:17:07;;;;;;;8.88;5.28;;;23.10;76.40;;;;;;4999637;28;20029;-85
2023/07/26 11:19:47;;;;;;;5.97;5.03;;;22.80;77.30;;;;;;4993715;28;20375;-84
2023/07/26 11:22:13;;;;;;;8.10;5.57;;;23.10;75.90;;;;;;4984442;28;20029;-85
2023/07/26 11:24:39;;;;;;;6.25;4.95;;;23.00;75.00;;;;;;4989895;28;20185;-84
2023/07/26 11:27:08;;;;;;;12.52;4.53;;;23.20;76.50;;;;;;5001623;28;20045;-86
2023/07/26 11:29:34;;;;;;;12.32;5.07;;;23.60;76.20;;;;;;5001173;28;20025;-86
2023/07/26 11:32:00;;;;;;;6.43;4.38;;;23.90;74.10;;;;;;4999257;28;20068;-84
2023/07/26 11:34:26;;;;;;;6.57;5.47;;;24.20;70.90;;;;;;4998419;28;20036;-85
2023/07/26 11:36:51;;;;;;;5.68;5.10;;;24.30;69.60;;;;;;5001281;28;20030;-86
2023/07/26 11:39:25;;;;;;;6.95;5.47;;;24.50;72.00;;;;;;4999599;28;20385;-85
2023/07/26 11:41:51;;;;;;;8.32;5.82;;;24.90;69.00;;;;;;5008204;28;20034;-85
2023/07/26 11:44:21;;;;;;;5.55;4.97;;;24.30;68.80;;;;;;5005605;28;20030;-85
2023/07/26 11:46:47;;;;;;;8.32;4.80;;;24.60;69.40;;;;;;5002930;28;20029;-85
2023/07/26 11:49:20;;;;;;;6.05;5.45;;;24.30;70.90;;;;;;5001130;28;20108;-85
2023/07/26 11:51:53;;;;;;;9.27;5.00;;;23.60;71.70;;;;;;4988750;28;20064;-86
2023/07/26 11:54:19;;;;;;;;;;;23.40;72.50;;;;;;4999544;28;20038;-83
2023/07/26 11:56:45;;;;;;;19.35;7.88;;;22.70;79.30;;;;;;4998446;28;20594;-82
2023/07/26 11:59:12;;;;;;;10.85;7.07;;;21.90;91.10;;;;;;5000537;28;20030;-82
2023/07/26 12:01:38;;;;;;;14.40;7.55;;;21.00;92.60;;;;;;5000107;28;20445;-82
2023/07/26 12:04:16;;;;;;;11.30;6.97;;;20.40;93.30;;;;;;4980082;28;20046;-82
2023/07/26 12:06:44;;;;;;;6.82;4.97;;;19.90;94.50;;;;;;4980082;28;20609;-81
2023/07/26 12:09:11;;;;;;;8.27;5.50;;;19.80;93.60;;;;;;4987197;28;20068;-82
2023/07/26 12:11:47;;;;;;;8.00;5.72;;;19.70;95.10;;;;;;4998161;28;20053;-82
2023/07/26 12:14:16;;;;;;;6.90;4.07;;;19.80;95.00;;;;;;4985654;28;20042;-82
2023/07/26 12:16:50;;;;;;;5.75;4.45;;;20.10;94.80;;;;;;4986358;28;20033;-83
2023/07/26 12:19:23;;;;;;;6.85;4.47;;;20.50;91.30;;;;;;4999694;28;20014;-83
2023/07/26 12:21:49;;;;;;;;;;;20.60;91.50;;;;;;4997921;28;20018;-81
2023/07/26 12:24:15;;;;;;;8.93;4.70;;;20.80;91.70;;;;;;4980493;28;19919;-82
2023/07/26 12:26:46;;;;;;;9.88;4.88;;;21.00;90.90;;;;;;4985919;28;20117;-84
2023/07/26 12:29:15;;;;;;;5.70;4.50;;;20.90;90.00;;;;;;4978277;28;20034;-82
2023/07/26 12:31:41;;;;;;;8.82;4.38;;;21.00;88.50;;;;;;4998455;28;20081;-83
2023/07/26 12:34:11;;;;;;;5.78;3.88;;;21.00;86.50;;;;;;4984761;28;20038;-83
2023/07/26 12:36:36;;;;;;;5.32;3.10;;;20.90;84.40;;;;;;4993445;28;20080;-83
2023/07/26 12:39:07;;;;;;;6.32;3.10;;;20.80;84.20;;;;;;4999368;28;21828;-83
2023/07/26 12:41:33;;;;;;;4.60;3.05;;;20.80;84.20;;;;;;4997548;28;20526;-83
2023/07/26 12:44:00;;;;;;;5.40;3.30;;;20.60;82.50;;;;;;4987242;28;20026;-83
2023/07/26 12:46:26;;;;;;;3.83;3.08;;;20.70;82.70;;;;;;4987300;28;20389;-85